createdAt,value
2023-01-22T00:00:24.937Z,102333.44
2023-01-22T00:02:52.792Z,102343.56
2023-01-22T00:05:20.824Z,102348.16
2023-01-22T00:07:49.212Z,102345.13
2023-01-22T00:10:17.537Z,102350.97
2023-01-22T00:12:45.549Z,102356.72
2023-01-22T00:15:13.427Z,102365.69
2023-01-22T00:17:41.203Z,102365.34
2023-01-22T00:20:09.948Z,102366.31
2023-01-22T00:22:37.697Z,102362.91
2023-01-22T00:25:06.109Z,102363.47
2023-01-22T00:27:34.012Z,102343.09
2023-01-22T00:30:01.854Z,102337.72
2023-01-22T00:32:29.790Z,102352.47
2023-01-22T00:34:57.675Z,102351.84
2023-01-22T00:37:26.209Z,102362.72
2023-01-22T00:39:54.046Z,102366.16
2023-01-22T00:42:22.389Z,102381.38
2023-01-22T00:44:50.256Z,102365.50
2023-01-22T00:47:18.128Z,102368.72
2023-01-22T00:49:46.018Z,102365.97
2023-01-22T00:52:13.923Z,102361.69
2023-01-22T00:54:42.139Z,102376.22
2023-01-22T00:57:09.881Z,102371.47
2023-01-22T00:59:37.908Z,102378.09
2023-01-22T01:02:07.082Z,102386.00
2023-01-22T01:04:35.047Z,102391.19
2023-01-22T01:07:02.944Z,102387.44
2023-01-22T01:09:30.740Z,102398.00
2023-01-22T01:11:59.345Z,102392.69
2023-01-22T01:14:27.974Z,102386.06
2023-01-22T01:16:59.023Z,102389.59
2023-01-22T01:19:27.045Z,102383.63
2023-01-22T01:21:54.933Z,102385.88
2023-01-22T01:24:24.989Z,102386.00
2023-01-22T01:26:52.760Z,102391.53
2023-01-22T01:29:20.587Z,102394.19
2023-01-22T01:31:52.122Z,102404.13
2023-01-22T01:34:20.122Z,102405.09
2023-01-22T01:36:49.546Z,102409.19
2023-01-22T01:39:17.947Z,102417.47
2023-01-22T01:41:47.795Z,102408.56
2023-01-22T01:44:23.376Z,102411.00
2023-01-22T01:47:05.589Z,102403.94
2023-01-22T01:49:49.650Z,102410.44
2023-01-22T01:52:18.194Z,102407.34
2023-01-22T01:54:48.305Z,102431.59
2023-01-22T01:57:19.346Z,102430.06
2023-01-22T01:59:47.271Z,102428.41
2023-01-22T02:02:15.137Z,102425.44
2023-01-22T02:04:44.051Z,102420.59
2023-01-22T02:07:11.861Z,102421.13
2023-01-22T02:09:39.912Z,102430.50
2023-01-22T02:12:07.920Z,102437.22
2023-01-22T02:14:38.269Z,102456.50
2023-01-22T02:17:14.099Z,102452.56
2023-01-22T02:19:42.479Z,102448.88
2023-01-22T02:22:14.750Z,102440.66
2023-01-22T02:24:42.559Z,102436.88
2023-01-22T02:27:11.240Z,102434.91
2023-01-22T02:29:39.161Z,102440.59
2023-01-22T02:32:09.614Z,102444.22
2023-01-22T02:34:38.713Z,102461.09
2023-01-22T02:37:06.791Z,102466.50
2023-01-22T02:39:34.747Z,102466.50
2023-01-22T02:42:05.478Z,102458.13
2023-01-22T02:44:33.529Z,102449.88
2023-01-22T02:47:01.561Z,102435.06
2023-01-22T02:49:29.387Z,102437.03
2023-01-22T02:51:57.236Z,102430.63
2023-01-22T02:54:25.864Z,102415.56
2023-01-22T02:56:53.770Z,102427.78
2023-01-22T02:59:21.632Z,102436.97
2023-01-22T03:01:49.493Z,102433.66
2023-01-22T03:04:17.432Z,102436.41
2023-01-22T03:06:46.380Z,102438.41
2023-01-22T03:09:16.495Z,102438.47
2023-01-22T03:11:45.743Z,102435.72
2023-01-22T03:14:36.530Z,102448.06
2023-01-22T03:17:23.028Z,102466.88
2023-01-22T03:20:11.178Z,102469.66
2023-01-22T03:22:39.000Z,102454.13
2023-01-22T03:25:07.198Z,102468.88
2023-01-22T03:27:35.115Z,102456.97
2023-01-22T03:30:02.953Z,102437.75
2023-01-22T03:32:34.703Z,102440.53
2023-01-22T03:35:02.824Z,102435.69
2023-01-22T03:37:43.897Z,102434.84
2023-01-22T03:40:12.238Z,102448.34
2023-01-22T03:42:40.736Z,102443.81
2023-01-22T03:45:10.428Z,102451.56
2023-01-22T03:47:39.231Z,102452.56
2023-01-22T03:50:22.049Z,102455.72
2023-01-22T03:52:49.816Z,102453.25
2023-01-22T03:55:17.610Z,102449.81
2023-01-22T03:57:45.704Z,102453.63
2023-01-22T04:00:15.242Z,102446.84
2023-01-22T04:02:43.927Z,102436.28
2023-01-22T04:05:19.960Z,102439.88
2023-01-22T04:07:50.054Z,102438.69
2023-01-22T04:10:20.412Z,102439.31
2023-01-22T04:12:49.038Z,102434.72
2023-01-22T04:15:20.463Z,102421.44
2023-01-22T04:17:49.924Z,102426.78
2023-01-22T04:20:46.996Z,102422.97
2023-01-22T04:23:30.402Z,102423.03
2023-01-22T04:25:59.048Z,102431.09
2023-01-22T04:28:27.051Z,102406.34
2023-01-22T04:30:56.414Z,102408.47
2023-01-22T04:33:43.233Z,102411.00
2023-01-22T04:36:16.591Z,102395.28
2023-01-22T04:38:44.787Z,102410.31
2023-01-22T04:41:12.406Z,102402.25
2023-01-22T04:43:40.383Z,102410.91
2023-01-22T04:46:08.389Z,102396.31
2023-01-22T04:48:36.262Z,102389.41
2023-01-22T04:51:04.450Z,102395.72
2023-01-22T04:53:33.644Z,102397.59
2023-01-22T04:56:01.701Z,102407.44
2023-01-22T04:58:29.532Z,102404.84
2023-01-22T05:01:00.678Z,102402.16
2023-01-22T05:03:29.379Z,102394.91
2023-01-22T05:05:57.892Z,102404.63
2023-01-22T05:08:27.290Z,102404.72
2023-01-22T05:10:55.302Z,102391.88
2023-01-22T05:13:30.142Z,102400.50
2023-01-22T05:15:58.137Z,102402.66
2023-01-22T05:18:27.120Z,102399.47
2023-01-22T05:20:54.896Z,102401.75
2023-01-22T05:23:28.926Z,102412.66
2023-01-22T05:26:02.654Z,102394.78
2023-01-22T05:28:40.114Z,102399.50
2023-01-22T05:31:12.025Z,102395.47
2023-01-22T05:33:48.622Z,102386.53
2023-01-22T05:36:17.178Z,102394.91
2023-01-22T05:38:46.999Z,102397.69
2023-01-22T05:41:16.387Z,102390.16
2023-01-22T05:43:44.311Z,102383.81
2023-01-22T05:46:18.622Z,102391.56
2023-01-22T05:49:25.003Z,102399.69
2023-01-22T05:51:56.578Z,102400.63
2023-01-22T05:54:24.535Z,102385.19
2023-01-22T05:56:53.111Z,102387.31
2023-01-22T05:59:21.150Z,102391.38
2023-01-22T06:01:55.516Z,102406.84
2023-01-22T06:04:23.441Z,102400.06
2023-01-22T06:06:51.185Z,102399.06
2023-01-22T06:09:20.942Z,102397.22
2023-01-22T06:11:48.796Z,102393.31
2023-01-22T06:14:17.265Z,102394.38
2023-01-22T06:16:45.479Z,102399.25
2023-01-22T06:19:39.350Z,102408.28
2023-01-22T06:22:08.122Z,102404.50
2023-01-22T06:24:49.998Z,102406.25
2023-01-22T06:27:19.448Z,102406.09
2023-01-22T06:30:00.875Z,102414.09
2023-01-22T06:32:29.332Z,102398.13
2023-01-22T06:34:57.587Z,102399.44
2023-01-22T06:37:25.659Z,102400.84
2023-01-22T06:39:54.028Z,102387.66
2023-01-22T06:42:42.119Z,102392.66
2023-01-22T06:45:10.284Z,102380.97
2023-01-22T06:47:44.587Z,102392.25
2023-01-22T06:50:13.626Z,102387.41
2023-01-22T06:52:41.961Z,102382.47
2023-01-22T06:55:10.213Z,102371.50
2023-01-22T06:57:39.711Z,102371.88
2023-01-22T07:00:08.130Z,102369.31
2023-01-22T07:02:35.960Z,102362.94
2023-01-22T07:05:03.850Z,102363.06
2023-01-22T07:07:31.672Z,102369.84
2023-01-22T07:09:59.427Z,102361.97
2023-01-22T07:12:27.407Z,102352.31
2023-01-22T07:14:55.211Z,102361.16
2023-01-22T07:17:23.237Z,102347.28
2023-01-22T07:19:51.327Z,102358.63
2023-01-22T07:22:19.131Z,102353.44
2023-01-22T07:24:46.981Z,102346.00
2023-01-22T07:27:14.867Z,102351.84
2023-01-22T07:29:43.092Z,102345.09
2023-01-22T07:32:10.887Z,102341.75
2023-01-22T07:34:38.973Z,102326.91
2023-01-22T07:37:06.933Z,102328.13
2023-01-22T07:39:34.643Z,102336.94
2023-01-22T07:42:02.542Z,102337.53
2023-01-22T07:44:31.659Z,102325.13
2023-01-22T07:46:59.483Z,102337.75
2023-01-22T07:49:27.393Z,102334.84
2023-01-22T07:51:55.230Z,102344.50
2023-01-22T07:54:23.175Z,102348.66
2023-01-22T07:56:51.096Z,102335.63
2023-01-22T07:59:19.152Z,102332.97
2023-01-22T08:01:47.256Z,102338.25
2023-01-22T08:04:15.085Z,102339.66
2023-01-22T08:06:42.840Z,102325.50
2023-01-22T08:09:10.824Z,102326.47
2023-01-22T08:11:38.791Z,102320.78
2023-01-22T08:14:06.521Z,102319.53
2023-01-22T08:16:34.527Z,102331.31
2023-01-22T08:19:02.512Z,102325.41
2023-01-22T08:21:30.439Z,102330.97
2023-01-22T08:23:58.237Z,102333.78
2023-01-22T08:26:26.088Z,102341.50
2023-01-22T08:28:54.031Z,102337.69
2023-01-22T08:31:27.846Z,102338.97
2023-01-22T08:33:56.416Z,102337.56
2023-01-22T08:36:24.348Z,102332.97
2023-01-22T08:38:52.220Z,102330.16
2023-01-22T08:41:20.206Z,102331.94
2023-01-22T08:43:48.047Z,102325.41
2023-01-22T08:46:16.100Z,102336.66
2023-01-22T08:48:44.633Z,102317.84
2023-01-22T08:51:13.008Z,102333.94
2023-01-22T08:53:41.078Z,102308.31
2023-01-22T08:56:08.931Z,102317.06
2023-01-22T08:58:36.902Z,102327.00
2023-01-22T09:01:04.898Z,102325.16
2023-01-22T09:03:32.830Z,102324.03
2023-01-22T09:06:00.618Z,102318.56
2023-01-22T09:08:28.586Z,102322.78
2023-01-22T09:10:56.373Z,102309.88
2023-01-22T09:13:24.094Z,102310.41
2023-01-22T09:15:52.135Z,102314.72
2023-01-22T09:18:19.838Z,102313.63
2023-01-22T09:20:47.655Z,102313.03
2023-01-22T09:23:15.734Z,102316.97
2023-01-22T09:25:43.627Z,102314.06
2023-01-22T09:28:12.760Z,102314.69
2023-01-22T09:30:42.238Z,102316.44
2023-01-22T09:33:10.451Z,102319.44
2023-01-22T09:35:38.355Z,102317.97
2023-01-22T09:38:06.241Z,102311.28
2023-01-22T09:40:49.374Z,102305.63
2023-01-22T09:43:37.899Z,102301.56
2023-01-22T09:46:13.436Z,102313.84
2023-01-22T09:48:44.276Z,102310.88
2023-01-22T09:51:15.612Z,102301.44
2023-01-22T09:53:43.900Z,102303.44
2023-01-22T09:56:24.133Z,102300.31
2023-01-22T09:58:52.275Z,102304.06
2023-01-22T10:01:20.642Z,102297.69
2023-01-22T10:03:51.269Z,102304.53
2023-01-22T10:06:23.355Z,102299.84
2023-01-22T10:09:16.595Z,102304.34
2023-01-22T10:11:53.032Z,102295.81
2023-01-22T10:14:22.077Z,102302.50
2023-01-22T10:16:49.937Z,102296.91
2023-01-22T10:19:42.768Z,102294.50
2023-01-22T10:22:36.722Z,102297.19
2023-01-22T10:25:04.928Z,102300.53
2023-01-22T10:27:41.873Z,102297.50
2023-01-22T10:30:19.463Z,102295.16
2023-01-22T10:32:58.368Z,102297.19
2023-01-22T10:35:26.504Z,102294.09
2023-01-22T10:37:55.525Z,102290.34
2023-01-22T10:40:33.192Z,102293.31
2023-01-22T10:43:01.859Z,102299.16
2023-01-22T10:45:29.786Z,102302.31
2023-01-22T10:48:17.664Z,102294.34
2023-01-22T10:50:45.922Z,102295.94
2023-01-22T10:53:34.858Z,102285.97
2023-01-22T10:56:05.748Z,102289.09
2023-01-22T10:58:37.077Z,102284.31
2023-01-22T11:01:07.590Z,102292.63
2023-01-22T11:03:37.621Z,102297.03
2023-01-22T11:06:17.099Z,102285.38
2023-01-22T11:09:00.839Z,102290.34
2023-01-22T11:11:33.631Z,102294.78
2023-01-22T11:14:07.872Z,102292.94
2023-01-22T11:16:36.766Z,102289.97
2023-01-22T11:19:13.098Z,102304.91
2023-01-22T11:21:51.995Z,102300.50
2023-01-22T11:24:22.717Z,102292.81
2023-01-22T11:27:04.996Z,102289.69
2023-01-22T11:29:59.251Z,102281.38
2023-01-22T11:32:51.558Z,102282.53
2023-01-22T11:35:45.211Z,102278.66
2023-01-22T11:38:37.590Z,102279.53
2023-01-22T11:41:31.042Z,102267.13
2023-01-22T11:44:29.101Z,102271.25
2023-01-22T11:47:12.037Z,102259.31
2023-01-22T11:49:57.286Z,102275.44
2023-01-22T11:52:44.105Z,102265.28
2023-01-22T11:55:58.088Z,102267.91
2023-01-22T11:58:58.338Z,102263.03
2023-01-22T12:01:53.347Z,102264.06
2023-01-22T12:04:43.051Z,102254.13
2023-01-22T12:07:29.491Z,102259.59
2023-01-22T12:10:19.346Z,102262.41
2023-01-22T12:12:56.151Z,102257.66
2023-01-22T12:15:27.444Z,102260.28
2023-01-22T12:18:32.275Z,102248.81
2023-01-22T12:21:03.058Z,102242.00
2023-01-22T12:23:44.857Z,102245.41
2023-01-22T12:26:23.703Z,102246.28
2023-01-22T12:29:03.582Z,102239.63
2023-01-22T12:31:35.578Z,102230.16
2023-01-22T12:34:05.523Z,102232.00
2023-01-22T12:36:33.479Z,102230.34
2023-01-22T12:39:03.694Z,102221.94
2023-01-22T12:41:49.038Z,102222.03
2023-01-22T12:44:36.096Z,102218.53
2023-01-22T12:47:22.457Z,102214.81
2023-01-22T12:49:51.744Z,102211.31
2023-01-22T12:52:33.492Z,102209.56
2023-01-22T12:55:01.823Z,102209.47
2023-01-22T12:57:40.709Z,102200.28
2023-01-22T13:00:22.974Z,102199.50
2023-01-22T13:02:52.234Z,102195.38
2023-01-22T13:05:37.827Z,102183.44
2023-01-22T13:08:42.673Z,102189.78
2023-01-22T13:11:15.473Z,102184.59
2023-01-22T13:13:53.079Z,102181.38
2023-01-22T13:16:34.719Z,102174.44
2023-01-22T13:19:19.540Z,102163.13
2023-01-22T13:21:47.544Z,102164.59
2023-01-22T13:24:17.512Z,102142.66
2023-01-22T13:26:57.566Z,102167.72
2023-01-22T13:29:29.096Z,102169.28
2023-01-22T13:32:02.438Z,102158.06
2023-01-22T13:34:30.653Z,102146.75
2023-01-22T13:36:58.554Z,102155.81
2023-01-22T13:39:35.534Z,102151.59
2023-01-22T13:42:05.441Z,102136.25
2023-01-22T13:44:38.341Z,102130.22
2023-01-22T13:47:06.202Z,102136.25
2023-01-22T13:49:42.762Z,102138.81
2023-01-22T13:52:15.386Z,102149.19
2023-01-22T13:54:55.853Z,102146.63
2023-01-22T13:57:23.837Z,102150.84
2023-01-22T13:59:55.259Z,102147.31
2023-01-22T14:02:35.077Z,102140.38
2023-01-22T14:05:02.991Z,102143.69
2023-01-22T14:07:35.347Z,102148.69
2023-01-22T14:10:18.562Z,102151.13
2023-01-22T14:12:46.730Z,102139.81
2023-01-22T14:15:16.743Z,102146.75
2023-01-22T14:17:44.871Z,102145.09
2023-01-22T14:20:12.840Z,102133.19
2023-01-22T14:22:40.749Z,102134.25
2023-01-22T14:25:09.174Z,102136.00
2023-01-22T14:27:44.802Z,102121.34
2023-01-22T14:30:15.047Z,102117.06
2023-01-22T14:32:43.455Z,102109.84
2023-01-22T14:35:18.835Z,102100.91
2023-01-22T14:37:46.842Z,102096.81
2023-01-22T14:40:15.800Z,102096.34
2023-01-22T14:42:43.879Z,102096.91
2023-01-22T14:45:11.924Z,102094.97
2023-01-22T14:47:39.945Z,102093.91
2023-01-22T14:50:08.344Z,102081.81
2023-01-22T14:52:38.087Z,102073.91
2023-01-22T14:55:06.389Z,102071.56
2023-01-22T14:57:34.219Z,102064.38
2023-01-22T15:00:02.971Z,102056.28
2023-01-22T15:02:30.828Z,102056.19
2023-01-22T15:04:59.009Z,102042.91
2023-01-22T15:07:27.082Z,102046.16
2023-01-22T15:09:54.857Z,102040.56
2023-01-22T15:12:23.760Z,102040.56
2023-01-22T15:14:51.852Z,102035.41
2023-01-22T15:17:19.795Z,102037.94
2023-01-22T15:19:47.921Z,102030.31
2023-01-22T15:22:16.163Z,102029.75
2023-01-22T15:24:44.327Z,102017.75
2023-01-22T15:27:12.468Z,102015.44
2023-01-22T15:29:40.374Z,102004.28
2023-01-22T15:32:08.178Z,102001.66
2023-01-22T15:34:36.153Z,101998.56
2023-01-22T15:37:05.113Z,101988.97
2023-01-22T15:39:33.140Z,101978.63
2023-01-22T15:42:00.947Z,101985.19
2023-01-22T15:44:29.478Z,101990.53
2023-01-22T15:47:01.581Z,101978.81
2023-01-22T15:49:29.450Z,101975.50
2023-01-22T15:51:57.383Z,101985.91
2023-01-22T15:54:25.897Z,101985.59
2023-01-22T15:56:54.130Z,101976.97
2023-01-22T15:59:22.016Z,101974.59
2023-01-22T16:01:50.178Z,101963.78
2023-01-22T16:04:18.211Z,101951.78
2023-01-22T16:06:46.082Z,101949.69
2023-01-22T16:09:13.986Z,101950.31
2023-01-22T16:11:41.660Z,101949.09
2023-01-22T16:14:09.662Z,101935.75
2023-01-22T16:16:37.939Z,101947.16
2023-01-22T16:19:07.589Z,101939.81
2023-01-22T16:21:35.767Z,101947.09
2023-01-22T16:24:03.900Z,101938.66
2023-01-22T16:26:33.623Z,101944.72
2023-01-22T16:29:02.208Z,101936.47
2023-01-22T16:31:32.115Z,101945.22
2023-01-22T16:34:01.902Z,101941.19
2023-01-22T16:36:30.182Z,101932.69
2023-01-22T16:38:58.119Z,101925.22
2023-01-22T16:41:30.817Z,101924.59
2023-01-22T16:43:59.734Z,101918.06
2023-01-22T16:46:29.781Z,101914.66
2023-01-22T16:49:02.086Z,101917.31
2023-01-22T16:51:35.126Z,101909.56
2023-01-22T16:54:03.024Z,101915.44
2023-01-22T16:56:30.967Z,101905.28
2023-01-22T16:58:59.097Z,101921.69
2023-01-22T17:01:27.667Z,101900.72
2023-01-22T17:03:55.480Z,101893.16
2023-01-22T17:06:25.912Z,101885.44
2023-01-22T17:08:53.847Z,101892.53
2023-01-22T17:11:21.724Z,101889.91
2023-01-22T17:13:49.788Z,101877.81
2023-01-22T17:16:17.583Z,101878.63
2023-01-22T17:18:45.803Z,101864.50
2023-01-22T17:21:15.645Z,101869.50
2023-01-22T17:23:43.652Z,101849.72
2023-01-22T17:26:12.679Z,101848.78
2023-01-22T17:28:40.528Z,101846.38
2023-01-22T17:31:09.942Z,101841.69
2023-01-22T17:33:38.045Z,101840.03
2023-01-22T17:36:06.599Z,101827.31
2023-01-22T17:38:38.391Z,101826.16
2023-01-22T17:41:10.736Z,101815.19
2023-01-22T17:43:39.347Z,101795.50
2023-01-22T17:46:09.474Z,101807.19
2023-01-22T17:48:37.833Z,101801.22
2023-01-22T17:51:09.787Z,101791.13
2023-01-22T17:53:39.149Z,101791.38
2023-01-22T17:56:15.468Z,101783.81
2023-01-22T17:58:44.743Z,101777.13
2023-01-22T18:01:13.636Z,101776.50
2023-01-22T18:03:41.628Z,101775.00
2023-01-22T18:06:09.716Z,101764.19
2023-01-22T18:08:39.759Z,101761.31
2023-01-22T18:11:11.831Z,101761.00
2023-01-22T18:13:39.886Z,101754.94
2023-01-22T18:16:08.868Z,101759.09
2023-01-22T18:18:36.785Z,101763.22
2023-01-22T18:21:06.484Z,101744.41
2023-01-22T18:23:34.236Z,101740.97
2023-01-22T18:26:05.032Z,101740.00
2023-01-22T18:28:32.980Z,101738.50
2023-01-22T18:31:11.911Z,101740.34
2023-01-22T18:33:40.120Z,101739.91
2023-01-22T18:36:12.634Z,101734.38
2023-01-22T18:38:41.082Z,101718.53
2023-01-22T18:41:10.943Z,101712.00
2023-01-22T18:43:38.947Z,101697.44
2023-01-22T18:46:08.328Z,101702.97
2023-01-22T18:48:36.310Z,101697.16
2023-01-22T18:51:04.725Z,101701.59
2023-01-22T18:53:33.766Z,101689.59
2023-01-22T18:56:02.297Z,101690.16
2023-01-22T18:58:36.400Z,101678.97
2023-01-22T19:01:50.421Z,101683.19
2023-01-22T19:04:21.226Z,101677.25
2023-01-22T19:06:53.541Z,101676.56
2023-01-22T19:09:21.580Z,101663.91
2023-01-22T19:11:49.642Z,101678.75
2023-01-22T19:14:19.153Z,101676.75
2023-01-22T19:16:48.959Z,101650.41
2023-01-22T19:19:17.400Z,101653.78
2023-01-22T19:21:48.407Z,101646.19
2023-01-22T19:24:18.932Z,101646.41
2023-01-22T19:26:47.122Z,101635.88
2023-01-22T19:29:20.187Z,101638.22
2023-01-22T19:31:48.904Z,101620.88
2023-01-22T19:34:23.804Z,101622.47
2023-01-22T19:36:55.672Z,101612.97
2023-01-22T19:39:25.706Z,101607.94
2023-01-22T19:41:54.491Z,101607.94
2023-01-22T19:44:22.488Z,101599.44
2023-01-22T19:46:50.212Z,101606.19
2023-01-22T19:49:18.010Z,101610.47
2023-01-22T19:51:45.812Z,101595.56
2023-01-22T19:54:13.702Z,101591.38
2023-01-22T19:56:44.703Z,101591.78
2023-01-22T19:59:15.228Z,101592.22
2023-01-22T20:01:43.280Z,101586.00
2023-01-22T20:04:14.983Z,101588.19
2023-01-22T20:06:45.589Z,101560.97
2023-01-22T20:09:13.754Z,101573.47
2023-01-22T20:11:41.523Z,101569.50
2023-01-22T20:14:09.335Z,101568.94
2023-01-22T20:16:37.131Z,101567.50
2023-01-22T20:19:04.997Z,101565.09
2023-01-22T20:21:32.806Z,101551.53
2023-01-22T20:24:00.626Z,101546.59
2023-01-22T20:26:28.444Z,101534.50
2023-01-22T20:28:56.402Z,101529.69
2023-01-22T20:31:24.554Z,101520.13
2023-01-22T20:33:53.026Z,101522.91
2023-01-22T20:36:21.548Z,101518.00
2023-01-22T20:38:52.694Z,101515.63
2023-01-22T20:41:21.123Z,101515.22
2023-01-22T20:43:48.967Z,101508.06
2023-01-22T20:46:18.549Z,101497.50
2023-01-22T20:48:46.405Z,101488.22
2023-01-22T20:51:17.956Z,101488.94
2023-01-22T20:53:46.658Z,101473.63
2023-01-22T20:56:21.502Z,101466.59
2023-01-22T20:58:54.924Z,101459.53
2023-01-22T21:01:22.765Z,101462.47
2023-01-22T21:03:50.622Z,101464.44
2023-01-22T21:06:19.474Z,101460.25
2023-01-22T21:08:51.959Z,101449.41
2023-01-22T21:11:20.734Z,101451.72
2023-01-22T21:13:49.401Z,101438.06
2023-01-22T21:16:31.309Z,101427.63
2023-01-22T21:19:04.206Z,101421.22
2023-01-22T21:21:32.505Z,101416.63
2023-01-22T21:24:00.275Z,101405.28
2023-01-22T21:26:30.780Z,101406.50
2023-01-22T21:29:00.769Z,101398.63
2023-01-22T21:31:28.977Z,101397.75
2023-01-22T21:34:03.338Z,101401.59
2023-01-22T21:36:34.150Z,101388.13
2023-01-22T21:39:02.266Z,101377.06
2023-01-22T21:41:30.053Z,101373.72
2023-01-22T21:44:16.161Z,101360.19
2023-01-22T21:46:44.635Z,101360.59
2023-01-22T21:49:18.167Z,101355.75
2023-01-22T21:51:53.052Z,101348.59
2023-01-22T21:54:28.217Z,101339.72
2023-01-22T21:56:56.429Z,101334.38
2023-01-22T21:59:24.399Z,101342.50
2023-01-22T22:01:54.079Z,101327.69
2023-01-22T22:04:26.122Z,101316.13
2023-01-22T22:06:54.088Z,101307.56
2023-01-22T22:09:23.950Z,101300.00
2023-01-22T22:11:54.938Z,101293.06
2023-01-22T22:14:22.758Z,101284.34
2023-01-22T22:16:50.663Z,101281.25
2023-01-22T22:19:18.674Z,101273.13
2023-01-22T22:21:46.700Z,101267.56
2023-01-22T22:24:14.701Z,101239.84
2023-01-22T22:26:42.629Z,101244.75
2023-01-22T22:29:10.553Z,101256.19
2023-01-22T22:31:38.543Z,101241.31
2023-01-22T22:34:06.369Z,101248.38
2023-01-22T22:36:34.289Z,101222.97
2023-01-22T22:39:02.257Z,101222.59
2023-01-22T22:41:31.178Z,101231.47
2023-01-22T22:43:59.436Z,101220.38
2023-01-22T22:46:29.125Z,101217.16
2023-01-22T22:48:57.895Z,101212.19
2023-01-22T22:51:38.727Z,101214.25
2023-01-22T22:54:08.646Z,101188.78
2023-01-22T22:56:36.638Z,101176.56
2023-01-22T22:59:05.521Z,101170.53
2023-01-22T23:01:33.563Z,101161.44
2023-01-22T23:04:01.632Z,101156.34
2023-01-22T23:06:30.925Z,101155.59
2023-01-22T23:09:11.918Z,101150.84
2023-01-22T23:11:40.074Z,101146.78
2023-01-22T23:14:07.905Z,101140.13
2023-01-22T23:16:37.707Z,101136.94
2023-01-22T23:19:07.947Z,101122.59
2023-01-22T23:21:36.686Z,101117.22
2023-01-22T23:24:04.862Z,101117.13
2023-01-22T23:26:32.731Z,101103.59
2023-01-22T23:29:02.684Z,101107.97
2023-01-22T23:31:31.625Z,101098.53
2023-01-22T23:34:00.000Z,101089.09
2023-01-22T23:36:27.814Z,101085.47
2023-01-22T23:38:55.770Z,101077.06
2023-01-22T23:41:23.633Z,101073.66
2023-01-22T23:43:51.717Z,101070.34
2023-01-22T23:46:24.663Z,101068.72
2023-01-22T23:48:52.836Z,101060.22
2023-01-22T23:51:20.600Z,101061.97
2023-01-22T23:53:52.198Z,101057.63
2023-01-22T23:56:23.678Z,101046.63
2023-01-22T23:58:53.332Z,101035.44
